sensor_id;sensor_type;location;lat;lon;timestamp;P1;durP1;ratioP1;P2;durP2;ratioP2
6979;SDS011;3530;52.832;10.680;2023-08-20T00:01:15;10.60;;;8.98;;
6979;SDS011;3530;52.832;10.680;2023-08-20T00:04:07;11.55;;;9.88;;
6979;SDS011;3530;52.832;10.680;2023-08-20T00:06:53;14.13;;;10.63;;
6979;SDS011;3530;52.832;10.680;2023-08-20T00:09:39;10.77;;;9.70;;
6979;SDS011;3530;52.832;10.680;2023-08-20T00:12:25;13.32;;;10.45;;
6979;SDS011;3530;52.832;10.680;2023-08-20T00:15:11;9.68;;;8.50;;
6979;SDS011;3530;52.832;10.680;2023-08-20T00:17:57;11.57;;;9.10;;
6979;SDS011;3530;52.832;10.680;2023-08-20T00:20:43;13.95;;;10.23;;
6979;SDS011;3530;52.832;10.680;2023-08-20T00:23:31;9.13;;;7.75;;
6979;SDS011;3530;52.832;10.680;2023-08-20T00:26:16;11.82;;;9.30;;
6979;SDS011;3530;52.832;10.680;2023-08-20T00:29:02;13.70;;;8.68;;
6979;SDS011;3530;52.832;10.680;2023-08-20T00:31:48;10.70;;;8.40;;
6979;SDS011;3530;52.832;10.680;2023-08-20T00:34:34;8.60;;;7.60;;
6979;SDS011;3530;52.832;10.680;2023-08-20T00:37:20;11.23;;;7.28;;
6979;SDS011;3530;52.832;10.680;2023-08-20T00:40:05;10.30;;;7.82;;
6979;SDS011;3530;52.832;10.680;2023-08-20T00:42:52;22.48;;;10.50;;
6979;SDS011;3530;52.832;10.680;2023-08-20T00:45:37;8.23;;;7.38;;
6979;SDS011;3530;52.832;10.680;2023-08-20T00:48:23;9.55;;;7.55;;
6979;SDS011;3530;52.832;10.680;2023-08-20T00:51:09;8.80;;;7.78;;
6979;SDS011;3530;52.832;10.680;2023-08-20T00:53:55;9.73;;;7.25;;
6979;SDS011;3530;52.832;10.680;2023-08-20T00:56:41;7.35;;;6.55;;
6979;SDS011;3530;52.832;10.680;2023-08-20T00:59:27;7.32;;;6.63;;
6979;SDS011;3530;52.832;10.680;2023-08-20T01:02:12;8.45;;;6.57;;
6979;SDS011;3530;52.832;10.680;2023-08-20T01:04:58;7.85;;;6.15;;
6979;SDS011;3530;52.832;10.680;2023-08-20T01:11:00;10.52;;;6.35;;
6979;SDS011;3530;52.832;10.680;2023-08-20T01:13:49;11.40;;;6.55;;
6979;SDS011;3530;52.832;10.680;2023-08-20T01:16:35;6.53;;;5.82;;
6979;SDS011;3530;52.832;10.680;2023-08-20T01:19:21;9.13;;;6.03;;
6979;SDS011;3530;52.832;10.680;2023-08-20T01:25:32;6.10;;;5.03;;
6979;SDS011;3530;52.832;10.680;2023-08-20T01:28:41;7.78;;;6.97;;
6979;SDS011;3530;52.832;10.680;2023-08-20T01:31:27;7.20;;;6.35;;
6979;SDS011;3530;52.832;10.680;2023-08-20T01:34:13;7.65;;;6.15;;
6979;SDS011;3530;52.832;10.680;2023-08-20T01:36:59;6.40;;;5.55;;
6979;SDS011;3530;52.832;10.680;2023-08-20T01:39:45;6.43;;;5.55;;
6979;SDS011;3530;52.832;10.680;2023-08-20T01:42:30;8.98;;;5.93;;
6979;SDS011;3530;52.832;10.680;2023-08-20T01:45:16;7.70;;;5.45;;
6979;SDS011;3530;52.832;10.680;2023-08-20T01:48:03;8.40;;;5.90;;
6979;SDS011;3530;52.832;10.680;2023-08-20T01:50:49;7.78;;;4.68;;
6979;SDS011;3530;52.832;10.680;2023-08-20T01:53:35;9.85;;;6.03;;
6979;SDS011;3530;52.832;10.680;2023-08-20T01:56:21;8.15;;;5.53;;
6979;SDS011;3530;52.832;10.680;2023-08-20T01:59:06;6.95;;;5.55;;
6979;SDS011;3530;52.832;10.680;2023-08-20T02:01:52;7.30;;;6.03;;
6979;SDS011;3530;52.832;10.680;2023-08-20T02:04:38;8.02;;;5.57;;
6979;SDS011;3530;52.832;10.680;2023-08-20T02:07:23;8.60;;;6.03;;
6979;SDS011;3530;52.832;10.680;2023-08-20T02:10:09;14.18;;;6.43;;
6979;SDS011;3530;52.832;10.680;2023-08-20T02:12:55;8.15;;;5.70;;
6979;SDS011;3530;52.832;10.680;2023-08-20T02:15:41;9.23;;;4.90;;
6979;SDS011;3530;52.832;10.680;2023-08-20T02:18:27;9.00;;;5.45;;
6979;SDS011;3530;52.832;10.680;2023-08-20T02:21:12;5.78;;;4.70;;
6979;SDS011;3530;52.832;10.680;2023-08-20T02:23:58;8.60;;;5.40;;
6979;SDS011;3530;52.832;10.680;2023-08-20T02:26:44;6.85;;;4.88;;
6979;SDS011;3530;52.832;10.680;2023-08-20T02:29:29;5.53;;;4.95;;
6979;SDS011;3530;52.832;10.680;2023-08-20T02:32:15;9.00;;;5.90;;
6979;SDS011;3530;52.832;10.680;2023-08-20T02:35:01;8.15;;;5.90;;
6979;SDS011;3530;52.832;10.680;2023-08-20T02:37:46;11.48;;;6.28;;
6979;SDS011;3530;52.832;10.680;2023-08-20T02:40:32;8.25;;;5.60;;
6979;SDS011;3530;52.832;10.680;2023-08-20T02:43:18;11.98;;;6.78;;
6979;SDS011;3530;52.832;10.680;2023-08-20T02:46:03;9.32;;;5.68;;
6979;SDS011;3530;52.832;10.680;2023-08-20T02:48:49;7.63;;;6.07;;
6979;SDS011;3530;52.832;10.680;2023-08-20T02:51:35;10.30;;;5.53;;
6979;SDS011;3530;52.832;10.680;2023-08-20T02:54:20;10.95;;;6.13;;
6979;SDS011;3530;52.832;10.680;2023-08-20T02:57:06;7.15;;;6.40;;
6979;SDS011;3530;52.832;10.680;2023-08-20T02:59:52;8.65;;;6.00;;
6979;SDS011;3530;52.832;10.680;2023-08-20T03:02:37;8.20;;;6.93;;
6979;SDS011;3530;52.832;10.680;2023-08-20T03:05:25;12.35;;;6.53;;
6979;SDS011;3530;52.832;10.680;2023-08-20T03:08:10;9.43;;;6.85;;
6979;SDS011;3530;52.832;10.680;2023-08-20T03:10:56;8.75;;;6.30;;
6979;SDS011;3530;52.832;10.680;2023-08-20T03:13:42;8.55;;;6.70;;
6979;SDS011;3530;52.832;10.680;2023-08-20T03:16:27;10.65;;;6.22;;
6979;SDS011;3530;52.832;10.680;2023-08-20T03:19:14;12.15;;;6.68;;
6979;SDS011;3530;52.832;10.680;2023-08-20T03:22:00;10.23;;;5.93;;
6979;SDS011;3530;52.832;10.680;2023-08-20T03:24:46;8.68;;;6.35;;
6979;SDS011;3530;52.832;10.680;2023-08-20T03:27:32;7.97;;;6.40;;
6979;SDS011;3530;52.832;10.680;2023-08-20T03:30:18;7.55;;;5.55;;
6979;SDS011;3530;52.832;10.680;2023-08-20T03:33:03;6.88;;;5.88;;
6979;SDS011;3530;52.832;10.680;2023-08-20T03:35:49;8.38;;;5.82;;
6979;SDS011;3530;52.832;10.680;2023-08-20T03:38:35;8.90;;;5.70;;
6979;SDS011;3530;52.832;10.680;2023-08-20T03:41:20;7.55;;;6.25;;
6979;SDS011;3530;52.832;10.680;2023-08-20T03:44:06;8.80;;;6.10;;
6979;SDS011;3530;52.832;10.680;2023-08-20T03:46:52;10.48;;;5.75;;
6979;SDS011;3530;52.832;10.680;2023-08-20T03:49:37;10.05;;;5.75;;
6979;SDS011;3530;52.832;10.680;2023-08-20T03:52:23;9.32;;;6.03;;
6979;SDS011;3530;52.832;10.680;2023-08-20T03:55:12;11.98;;;6.10;;
6979;SDS011;3530;52.832;10.680;2023-08-20T03:57:57;8.75;;;6.00;;
6979;SDS011;3530;52.832;10.680;2023-08-20T04:00:43;10.52;;;6.28;;
6979;SDS011;3530;52.832;10.680;2023-08-20T04:03:29;9.38;;;6.00;;
6979;SDS011;3530;52.832;10.680;2023-08-20T04:06:15;11.15;;;5.50;;
6979;SDS011;3530;52.832;10.680;2023-08-20T04:09:00;9.25;;;6.10;;
6979;SDS011;3530;52.832;10.680;2023-08-20T04:11:46;6.80;;;5.65;;
6979;SDS011;3530;52.832;10.680;2023-08-20T04:14:32;7.95;;;5.93;;
6979;SDS011;3530;52.832;10.680;2023-08-20T04:17:17;10.23;;;6.47;;
6979;SDS011;3530;52.832;10.680;2023-08-20T04:20:03;7.47;;;6.13;;
6979;SDS011;3530;52.832;10.680;2023-08-20T04:22:52;9.68;;;5.95;;
6979;SDS011;3530;52.832;10.680;2023-08-20T04:25:38;13.95;;;9.60;;
6979;SDS011;3530;52.832;10.680;2023-08-20T04:28:24;10.10;;;6.80;;
6979;SDS011;3530;52.832;10.680;2023-08-20T04:31:09;8.68;;;6.10;;
6979;SDS011;3530;52.832;10.680;2023-08-20T04:33:55;6.40;;;5.78;;
6979;SDS011;3530;52.832;10.680;2023-08-20T04:36:41;13.43;;;6.70;;
6979;SDS011;3530;52.832;10.680;2023-08-20T04:39:26;15.98;;;7.95;;
6979;SDS011;3530;52.832;10.680;2023-08-20T04:42:12;9.68;;;6.38;;
6979;SDS011;3530;52.832;10.680;2023-08-20T04:44:58;7.90;;;5.88;;
6979;SDS011;3530;52.832;10.680;2023-08-20T04:47:43;10.27;;;7.32;;
6979;SDS011;3530;52.832;10.680;2023-08-20T04:50:29;10.80;;;6.63;;
6979;SDS011;3530;52.832;10.680;2023-08-20T04:53:15;9.75;;;7.50;;
6979;SDS011;3530;52.832;10.680;2023-08-20T04:56:00;11.82;;;7.15;;
6979;SDS011;3530;52.832;10.680;2023-08-20T04:58:46;11.20;;;7.25;;
6979;SDS011;3530;52.832;10.680;2023-08-20T05:01:31;9.95;;;6.50;;
6979;SDS011;3530;52.832;10.680;2023-08-20T05:04:17;10.73;;;7.13;;
6979;SDS011;3530;52.832;10.680;2023-08-20T05:07:03;8.07;;;6.80;;
6979;SDS011;3530;52.832;10.680;2023-08-20T05:09:49;7.82;;;6.57;;
6979;SDS011;3530;52.832;10.680;2023-08-20T05:12:35;9.88;;;6.53;;
6979;SDS011;3530;52.832;10.680;2023-08-20T05:15:22;8.07;;;5.72;;
6979;SDS011;3530;52.832;10.680;2023-08-20T05:18:07;8.98;;;6.30;;
6979;SDS011;3530;52.832;10.680;2023-08-20T05:20:53;12.10;;;7.93;;
6979;SDS011;3530;52.832;10.680;2023-08-20T05:23:39;10.52;;;6.88;;
6979;SDS011;3530;52.832;10.680;2023-08-20T05:26:25;11.85;;;8.82;;
6979;SDS011;3530;52.832;10.680;2023-08-20T05:29:11;17.48;;;10.18;;
6979;SDS011;3530;52.832;10.680;2023-08-20T05:31:57;11.38;;;7.22;;
6979;SDS011;3530;52.832;10.680;2023-08-20T05:34:42;10.85;;;8.43;;
6979;SDS011;3530;52.832;10.680;2023-08-20T05:37:28;11.07;;;7.82;;
6979;SDS011;3530;52.832;10.680;2023-08-20T05:40:14;12.48;;;8.65;;
6979;SDS011;3530;52.832;10.680;2023-08-20T05:42:59;13.13;;;8.18;;
6979;SDS011;3530;52.832;10.680;2023-08-20T05:45:45;9.13;;;7.25;;
6979;SDS011;3530;52.832;10.680;2023-08-20T05:48:31;11.05;;;8.80;;
6979;SDS011;3530;52.832;10.680;2023-08-20T05:51:16;13.90;;;10.15;;
6979;SDS011;3530;52.832;10.680;2023-08-20T05:54:02;12.55;;;8.90;;
6979;SDS011;3530;52.832;10.680;2023-08-20T05:56:48;12.32;;;8.95;;
6979;SDS011;3530;52.832;10.680;2023-08-20T05:59:33;9.40;;;7.57;;
6979;SDS011;3530;52.832;10.680;2023-08-20T06:02:19;14.05;;;9.98;;
6979;SDS011;3530;52.832;10.680;2023-08-20T06:05:05;14.50;;;9.38;;
6979;SDS011;3530;52.832;10.680;2023-08-20T06:07:50;11.75;;;8.77;;
6979;SDS011;3530;52.832;10.680;2023-08-20T06:10:36;16.95;;;9.98;;
6979;SDS011;3530;52.832;10.680;2023-08-20T06:13:22;13.07;;;9.57;;
6979;SDS011;3530;52.832;10.680;2023-08-20T06:16:08;12.32;;;8.32;;
6979;SDS011;3530;52.832;10.680;2023-08-20T06:18:53;10.02;;;8.15;;
6979;SDS011;3530;52.832;10.680;2023-08-20T06:21:39;14.35;;;9.55;;
6979;SDS011;3530;52.832;10.680;2023-08-20T06:24:24;16.73;;;9.98;;
6979;SDS011;3530;52.832;10.680;2023-08-20T06:27:10;14.32;;;9.82;;
6979;SDS011;3530;52.832;10.680;2023-08-20T06:29:56;11.82;;;9.88;;
6979;SDS011;3530;52.832;10.680;2023-08-20T06:32:43;13.80;;;10.50;;
6979;SDS011;3530;52.832;10.680;2023-08-20T06:35:29;12.77;;;10.05;;
6979;SDS011;3530;52.832;10.680;2023-08-20T06:38:15;13.63;;;10.20;;
6979;SDS011;3530;52.832;10.680;2023-08-20T06:41:00;15.00;;;9.80;;
6979;SDS011;3530;52.832;10.680;2023-08-20T06:43:46;14.48;;;7.53;;
6979;SDS011;3530;52.832;10.680;2023-08-20T06:46:32;14.93;;;9.43;;
6979;SDS011;3530;52.832;10.680;2023-08-20T06:49:18;10.73;;;8.63;;
6979;SDS011;3530;52.832;10.680;2023-08-20T06:52:03;13.38;;;8.95;;
6979;SDS011;3530;52.832;10.680;2023-08-20T06:54:49;13.32;;;9.02;;
6979;SDS011;3530;52.832;10.680;2023-08-20T06:57:35;9.45;;;8.40;;
6979;SDS011;3530;52.832;10.680;2023-08-20T07:00:20;13.30;;;8.75;;
6979;SDS011;3530;52.832;10.680;2023-08-20T07:03:07;11.13;;;8.40;;
6979;SDS011;3530;52.832;10.680;2023-08-20T07:05:52;12.30;;;8.35;;
6979;SDS011;3530;52.832;10.680;2023-08-20T07:08:38;9.80;;;7.50;;
6979;SDS011;3530;52.832;10.680;2023-08-20T07:11:24;12.75;;;7.53;;
6979;SDS011;3530;52.832;10.680;2023-08-20T07:14:10;12.50;;;8.68;;
6979;SDS011;3530;52.832;10.680;2023-08-20T07:16:56;10.57;;;7.85;;
6979;SDS011;3530;52.832;10.680;2023-08-20T07:19:41;8.27;;;6.55;;
6979;SDS011;3530;52.832;10.680;2023-08-20T07:22:27;10.10;;;7.07;;
6979;SDS011;3530;52.832;10.680;2023-08-20T07:25:12;6.47;;;5.85;;
6979;SDS011;3530;52.832;10.680;2023-08-20T07:27:58;5.55;;;5.03;;
6979;SDS011;3530;52.832;10.680;2023-08-20T07:30:44;8.00;;;5.47;;
6979;SDS011;3530;52.832;10.680;2023-08-20T07:33:31;7.63;;;5.20;;
6979;SDS011;3530;52.832;10.680;2023-08-20T07:36:17;6.72;;;6.03;;
6979;SDS011;3530;52.832;10.680;2023-08-20T07:39:04;6.38;;;5.78;;
6979;SDS011;3530;52.832;10.680;2023-08-20T07:41:50;8.85;;;5.38;;
6979;SDS011;3530;52.832;10.680;2023-08-20T07:44:35;8.93;;;6.05;;
6979;SDS011;3530;52.832;10.680;2023-08-20T07:47:21;5.25;;;4.75;;
6979;SDS011;3530;52.832;10.680;2023-08-20T07:50:07;8.10;;;5.53;;
6979;SDS011;3530;52.832;10.680;2023-08-20T07:52:52;8.95;;;5.28;;
6979;SDS011;3530;52.832;10.680;2023-08-20T07:55:38;7.78;;;4.53;;
6979;SDS011;3530;52.832;10.680;2023-08-20T07:58:24;6.35;;;4.68;;
6979;SDS011;3530;52.832;10.680;2023-08-20T08:01:09;4.25;;;3.85;;
6979;SDS011;3530;52.832;10.680;2023-08-20T08:03:55;6.43;;;4.40;;
6979;SDS011;3530;52.832;10.680;2023-08-20T08:06:41;4.55;;;4.00;;
6979;SDS011;3530;52.832;10.680;2023-08-20T08:09:27;7.65;;;3.78;;
6979;SDS011;3530;52.832;10.680;2023-08-20T08:12:13;4.72;;;4.03;;
6979;SDS011;3530;52.832;10.680;2023-08-20T08:14:59;4.80;;;3.83;;
6979;SDS011;3530;52.832;10.680;2023-08-20T08:17:45;5.50;;;4.07;;
6979;SDS011;3530;52.832;10.680;2023-08-20T08:20:31;4.65;;;3.80;;
6979;SDS011;3530;52.832;10.680;2023-08-20T08:23:16;5.05;;;3.30;;
6979;SDS011;3530;52.832;10.680;2023-08-20T08:26:02;5.55;;;3.90;;
6979;SDS011;3530;52.832;10.680;2023-08-20T08:28:48;5.68;;;4.05;;
6979;SDS011;3530;52.832;10.680;2023-08-20T08:31:34;6.18;;;4.13;;
6979;SDS011;3530;52.832;10.680;2023-08-20T08:34:19;5.85;;;3.72;;
6979;SDS011;3530;52.832;10.680;2023-08-20T08:37:06;3.88;;;2.83;;
6979;SDS011;3530;52.832;10.680;2023-08-20T08:39:52;6.47;;;3.45;;
6979;SDS011;3530;52.832;10.680;2023-08-20T08:42:38;4.40;;;3.70;;
6979;SDS011;3530;52.832;10.680;2023-08-20T08:45:24;3.80;;;3.42;;
6979;SDS011;3530;52.832;10.680;2023-08-20T08:48:11;6.88;;;3.47;;
6979;SDS011;3530;52.832;10.680;2023-08-20T08:50:57;3.78;;;3.13;;
6979;SDS011;3530;52.832;10.680;2023-08-20T08:53:43;3.45;;;3.17;;
6979;SDS011;3530;52.832;10.680;2023-08-20T08:56:30;4.70;;;3.90;;
6979;SDS011;3530;52.832;10.680;2023-08-20T08:59:15;3.35;;;2.88;;
6979;SDS011;3530;52.832;10.680;2023-08-20T09:02:01;3.17;;;2.92;;
6979;SDS011;3530;52.832;10.680;2023-08-20T09:04:47;3.28;;;2.83;;
6979;SDS011;3530;52.832;10.680;2023-08-20T09:07:33;2.90;;;2.70;;
6979;SDS011;3530;52.832;10.680;2023-08-20T09:10:18;3.50;;;3.08;;
6979;SDS011;3530;52.832;10.680;2023-08-20T09:13:04;3.10;;;2.85;;
6979;SDS011;3530;52.832;10.680;2023-08-20T09:15:50;4.60;;;2.63;;
6979;SDS011;3530;52.832;10.680;2023-08-20T09:18:40;3.25;;;2.67;;
6979;SDS011;3530;52.832;10.680;2023-08-20T09:21:27;4.93;;;2.90;;
6979;SDS011;3530;52.832;10.680;2023-08-20T09:24:15;4.10;;;3.22;;
6979;SDS011;3530;52.832;10.680;2023-08-20T09:27:03;3.50;;;2.78;;
6979;SDS011;3530;52.832;10.680;2023-08-20T09:29:49;3.13;;;2.67;;
6979;SDS011;3530;52.832;10.680;2023-08-20T09:32:37;3.83;;;2.55;;
6979;SDS011;3530;52.832;10.680;2023-08-20T09:35:22;4.00;;;3.13;;
6979;SDS011;3530;52.832;10.680;2023-08-20T09:38:08;5.47;;;2.80;;
6979;SDS011;3530;52.832;10.680;2023-08-20T09:40:54;4.07;;;2.75;;
6979;SDS011;3530;52.832;10.680;2023-08-20T09:43:41;2.58;;;2.33;;
6979;SDS011;3530;52.832;10.680;2023-08-20T09:46:30;3.33;;;3.03;;
6979;SDS011;3530;52.832;10.680;2023-08-20T09:49:17;3.00;;;2.80;;
6979;SDS011;3530;52.832;10.680;2023-08-20T09:52:05;2.83;;;2.45;;
6979;SDS011;3530;52.832;10.680;2023-08-20T09:55:16;3.42;;;2.38;;
6979;SDS011;3530;52.832;10.680;2023-08-20T09:58:02;4.15;;;2.92;;
6979;SDS011;3530;52.832;10.680;2023-08-20T10:00:49;2.38;;;2.28;;
6979;SDS011;3530;52.832;10.680;2023-08-20T10:03:36;3.05;;;2.65;;
6979;SDS011;3530;52.832;10.680;2023-08-20T10:06:22;3.53;;;2.40;;
6979;SDS011;3530;52.832;10.680;2023-08-20T10:09:08;2.50;;;2.30;;
6979;SDS011;3530;52.832;10.680;2023-08-20T10:11:54;5.28;;;3.08;;
6979;SDS011;3530;52.832;10.680;2023-08-20T10:14:40;3.10;;;2.80;;
6979;SDS011;3530;52.832;10.680;2023-08-20T10:17:29;3.40;;;2.53;;
6979;SDS011;3530;52.832;10.680;2023-08-20T10:20:17;2.67;;;2.47;;
6979;SDS011;3530;52.832;10.680;2023-08-20T10:23:03;2.85;;;2.65;;
6979;SDS011;3530;52.832;10.680;2023-08-20T10:25:49;2.70;;;2.45;;
6979;SDS011;3530;52.832;10.680;2023-08-20T10:28:37;4.28;;;2.75;;
6979;SDS011;3530;52.832;10.680;2023-08-20T10:31:25;2.70;;;2.50;;
6979;SDS011;3530;52.832;10.680;2023-08-20T10:34:11;4.35;;;2.70;;
6979;SDS011;3530;52.832;10.680;2023-08-20T10:36:56;2.20;;;2.10;;
6979;SDS011;3530;52.832;10.680;2023-08-20T10:39:42;2.60;;;2.40;;
6979;SDS011;3530;52.832;10.680;2023-08-20T10:42:40;2.60;;;2.50;;
6979;SDS011;3530;52.832;10.680;2023-08-20T10:45:27;2.65;;;2.45;;
6979;SDS011;3530;52.832;10.680;2023-08-20T10:48:13;2.58;;;2.40;;
6979;SDS011;3530;52.832;10.680;2023-08-20T10:51:05;3.13;;;2.60;;
6979;SDS011;3530;52.832;10.680;2023-08-20T10:54:02;2.53;;;2.42;;
6979;SDS011;3530;52.832;10.680;2023-08-20T10:56:56;2.75;;;2.55;;
6979;SDS011;3530;52.832;10.680;2023-08-20T10:59:44;2.42;;;2.20;;
6979;SDS011;3530;52.832;10.680;2023-08-20T11:02:42;2.85;;;2.58;;
6979;SDS011;3530;52.832;10.680;2023-08-20T11:05:27;3.00;;;2.40;;
6979;SDS011;3530;52.832;10.680;2023-08-20T11:08:13;2.72;;;2.30;;
6979;SDS011;3530;52.832;10.680;2023-08-20T11:10:59;2.50;;;2.30;;
6979;SDS011;3530;52.832;10.680;2023-08-20T11:13:45;3.75;;;2.50;;
6979;SDS011;3530;52.832;10.680;2023-08-20T11:16:31;2.67;;;2.47;;
6979;SDS011;3530;52.832;10.680;2023-08-20T11:19:20;3.03;;;2.78;;
6979;SDS011;3530;52.832;10.680;2023-08-20T11:22:07;3.10;;;2.38;;
6979;SDS011;3530;52.832;10.680;2023-08-20T11:24:53;2.40;;;2.25;;
6979;SDS011;3530;52.832;10.680;2023-08-20T11:27:44;2.80;;;2.03;;
6979;SDS011;3530;52.832;10.680;2023-08-20T11:30:30;2.22;;;1.83;;
6979;SDS011;3530;52.832;10.680;2023-08-20T11:33:16;4.03;;;2.38;;
6979;SDS011;3530;52.832;10.680;2023-08-20T11:36:02;2.08;;;1.98;;
6979;SDS011;3530;52.832;10.680;2023-08-20T11:38:50;2.20;;;2.10;;
6979;SDS011;3530;52.832;10.680;2023-08-20T11:41:40;2.53;;;2.33;;
6979;SDS011;3530;52.832;10.680;2023-08-20T11:44:25;2.72;;;2.50;;
6979;SDS011;3530;52.832;10.680;2023-08-20T11:47:15;11.95;;;5.40;;
6979;SDS011;3530;52.832;10.680;2023-08-20T11:50:02;8.90;;;3.90;;
6979;SDS011;3530;52.832;10.680;2023-08-20T11:52:51;12.65;;;3.95;;
6979;SDS011;3530;52.832;10.680;2023-08-20T11:55:39;17.25;;;7.63;;
6979;SDS011;3530;52.832;10.680;2023-08-20T11:58:28;16.40;;;5.93;;
6979;SDS011;3530;52.832;10.680;2023-08-20T12:01:13;13.00;;;6.03;;
6979;SDS011;3530;52.832;10.680;2023-08-20T12:04:03;3.92;;;3.58;;
6979;SDS011;3530;52.832;10.680;2023-08-20T12:07:00;3.05;;;2.80;;
6979;SDS011;3530;52.832;10.680;2023-08-20T12:09:48;2.95;;;2.65;;
6979;SDS011;3530;52.832;10.680;2023-08-20T12:12:34;11.45;;;8.23;;
6979;SDS011;3530;52.832;10.680;2023-08-20T12:15:19;3.97;;;3.10;;
6979;SDS011;3530;52.832;10.680;2023-08-20T12:18:06;4.60;;;3.85;;
6979;SDS011;3530;52.832;10.680;2023-08-20T12:20:52;2.72;;;2.45;;
6979;SDS011;3530;52.832;10.680;2023-08-20T12:23:37;2.95;;;2.72;;
6979;SDS011;3530;52.832;10.680;2023-08-20T12:26:23;2.67;;;2.10;;
6979;SDS011;3530;52.832;10.680;2023-08-20T12:29:09;2.45;;;2.17;;
6979;SDS011;3530;52.832;10.680;2023-08-20T12:31:54;1.92;;;1.83;;
6979;SDS011;3530;52.832;10.680;2023-08-20T12:34:40;2.40;;;2.20;;
6979;SDS011;3530;52.832;10.680;2023-08-20T12:37:26;2.28;;;2.17;;
6979;SDS011;3530;52.832;10.680;2023-08-20T12:40:11;2.35;;;1.77;;
6979;SDS011;3530;52.832;10.680;2023-08-20T12:42:57;2.95;;;2.20;;
6979;SDS011;3530;52.832;10.680;2023-08-20T12:45:43;2.50;;;2.30;;
6979;SDS011;3530;52.832;10.680;2023-08-20T12:48:29;4.30;;;2.42;;
6979;SDS011;3530;52.832;10.680;2023-08-20T12:51:16;2.20;;;2.03;;
6979;SDS011;3530;52.832;10.680;2023-08-20T12:54:02;3.40;;;2.20;;
6979;SDS011;3530;52.832;10.680;2023-08-20T12:56:48;3.55;;;2.30;;
6979;SDS011;3530;52.832;10.680;2023-08-20T12:59:34;2.35;;;2.25;;
6979;SDS011;3530;52.832;10.680;2023-08-20T13:02:19;4.03;;;2.20;;
6979;SDS011;3530;52.832;10.680;2023-08-20T13:05:06;2.25;;;1.95;;
6979;SDS011;3530;52.832;10.680;2023-08-20T13:07:53;2.28;;;2.08;;
6979;SDS011;3530;52.832;10.680;2023-08-20T13:10:39;2.85;;;2.42;;
6979;SDS011;3530;52.832;10.680;2023-08-20T13:13:26;2.00;;;1.90;;
6979;SDS011;3530;52.832;10.680;2023-08-20T13:16:12;2.58;;;1.92;;
6979;SDS011;3530;52.832;10.680;2023-08-20T13:18:58;2.42;;;2.22;;
6979;SDS011;3530;52.832;10.680;2023-08-20T13:21:43;2.33;;;2.03;;
6979;SDS011;3530;52.832;10.680;2023-08-20T13:24:29;2.00;;;1.90;;
6979;SDS011;3530;52.832;10.680;2023-08-20T13:27:15;3.35;;;2.72;;
6979;SDS011;3530;52.832;10.680;2023-08-20T13:30:00;1.90;;;1.80;;
6979;SDS011;3530;52.832;10.680;2023-08-20T13:32:46;1.95;;;1.85;;
6979;SDS011;3530;52.832;10.680;2023-08-20T13:35:32;4.18;;;2.83;;
6979;SDS011;3530;52.832;10.680;2023-08-20T13:38:18;1.95;;;1.83;;
6979;SDS011;3530;52.832;10.680;2023-08-20T13:41:06;3.97;;;2.97;;
6979;SDS011;3530;52.832;10.680;2023-08-20T13:43:52;2.90;;;2.40;;
6979;SDS011;3530;52.832;10.680;2023-08-20T13:46:38;2.38;;;1.85;;
6979;SDS011;3530;52.832;10.680;2023-08-20T13:49:24;2.20;;;2.00;;
6979;SDS011;3530;52.832;10.680;2023-08-20T13:52:10;2.78;;;2.08;;
6979;SDS011;3530;52.832;10.680;2023-08-20T13:54:56;2.65;;;1.73;;
6979;SDS011;3530;52.832;10.680;2023-08-20T13:57:41;2.17;;;2.08;;
6979;SDS011;3530;52.832;10.680;2023-08-20T14:00:27;2.10;;;2.00;;
6979;SDS011;3530;52.832;10.680;2023-08-20T14:03:13;2.72;;;2.00;;
6979;SDS011;3530;52.832;10.680;2023-08-20T14:05:58;3.85;;;2.13;;
6979;SDS011;3530;52.832;10.680;2023-08-20T14:08:44;2.17;;;2.08;;
6979;SDS011;3530;52.832;10.680;2023-08-20T14:11:30;2.70;;;2.03;;
6979;SDS011;3530;52.832;10.680;2023-08-20T14:14:15;2.28;;;2.10;;
6979;SDS011;3530;52.832;10.680;2023-08-20T14:17:01;2.80;;;2.08;;
6979;SDS011;3530;52.832;10.680;2023-08-20T14:19:48;1.95;;;1.85;;
6979;SDS011;3530;52.832;10.680;2023-08-20T14:22:33;3.17;;;2.05;;
6979;SDS011;3530;52.832;10.680;2023-08-20T14:25:19;4.72;;;2.20;;
6979;SDS011;3530;52.832;10.680;2023-08-20T14:28:05;2.05;;;1.95;;
6979;SDS011;3530;52.832;10.680;2023-08-20T14:30:50;2.10;;;2.00;;
6979;SDS011;3530;52.832;10.680;2023-08-20T14:33:38;2.13;;;2.00;;
6979;SDS011;3530;52.832;10.680;2023-08-20T14:36:24;1.90;;;1.80;;
6979;SDS011;3530;52.832;10.680;2023-08-20T14:39:10;5.55;;;2.63;;
6979;SDS011;3530;52.832;10.680;2023-08-20T14:41:55;1.70;;;1.63;;
6979;SDS011;3530;52.832;10.680;2023-08-20T14:44:41;2.13;;;1.92;;
6979;SDS011;3530;52.832;10.680;2023-08-20T14:47:26;2.20;;;2.00;;
6979;SDS011;3530;52.832;10.680;2023-08-20T14:50:12;1.90;;;1.80;;
6979;SDS011;3530;52.832;10.680;2023-08-20T14:52:58;1.90;;;1.80;;
6979;SDS011;3530;52.832;10.680;2023-08-20T14:55:44;3.08;;;2.30;;
6979;SDS011;3530;52.832;10.680;2023-08-20T14:58:30;5.05;;;2.40;;
6979;SDS011;3530;52.832;10.680;2023-08-20T15:01:16;2.20;;;2.00;;
6979;SDS011;3530;52.832;10.680;2023-08-20T15:04:02;3.28;;;1.80;;
6979;SDS011;3530;52.832;10.680;2023-08-20T15:06:48;2.15;;;2.05;;
6979;SDS011;3530;52.832;10.680;2023-08-20T15:09:33;2.50;;;2.30;;
6979;SDS011;3530;52.832;10.680;2023-08-20T15:12:19;1.83;;;1.73;;
6979;SDS011;3530;52.832;10.680;2023-08-20T15:15:05;1.92;;;1.83;;
6979;SDS011;3530;52.832;10.680;2023-08-20T15:17:51;1.90;;;1.90;;
6979;SDS011;3530;52.832;10.680;2023-08-20T15:20:38;2.00;;;1.90;;
6979;SDS011;3530;52.832;10.680;2023-08-20T15:23:24;2.42;;;2.22;;
6979;SDS011;3530;52.832;10.680;2023-08-20T15:26:11;3.30;;;2.30;;
6979;SDS011;3530;52.832;10.680;2023-08-20T15:28:57;2.38;;;2.17;;
6979;SDS011;3530;52.832;10.680;2023-08-20T15:31:43;2.40;;;2.20;;
6979;SDS011;3530;52.832;10.680;2023-08-20T15:34:28;2.65;;;2.38;;
6979;SDS011;3530;52.832;10.680;2023-08-20T15:37:14;4.15;;;2.13;;
6979;SDS011;3530;52.832;10.680;2023-08-20T15:40:00;3.75;;;2.00;;
6979;SDS011;3530;52.832;10.680;2023-08-20T15:42:45;3.10;;;2.13;;
6979;SDS011;3530;52.832;10.680;2023-08-20T15:45:31;2.47;;;1.85;;
6979;SDS011;3530;52.832;10.680;2023-08-20T15:48:17;2.63;;;1.90;;
6979;SDS011;3530;52.832;10.680;2023-08-20T15:51:03;2.78;;;2.58;;
6979;SDS011;3530;52.832;10.680;2023-08-20T15:53:48;2.20;;;2.10;;
6979;SDS011;3530;52.832;10.680;2023-08-20T15:56:36;2.17;;;2.00;;
6979;SDS011;3530;52.832;10.680;2023-08-20T15:59:22;2.42;;;2.30;;
6979;SDS011;3530;52.832;10.680;2023-08-20T16:02:08;2.03;;;1.92;;
6979;SDS011;3530;52.832;10.680;2023-08-20T16:04:56;4.20;;;2.47;;
6979;SDS011;3530;52.832;10.680;2023-08-20T16:07:42;2.45;;;2.17;;
6979;SDS011;3530;52.832;10.680;2023-08-20T16:10:28;2.30;;;2.17;;
6979;SDS011;3530;52.832;10.680;2023-08-20T16:13:13;2.15;;;2.05;;
6979;SDS011;3530;52.832;10.680;2023-08-20T16:15:59;2.30;;;2.10;;
6979;SDS011;3530;52.832;10.680;2023-08-20T16:18:45;2.22;;;2.10;;
6979;SDS011;3530;52.832;10.680;2023-08-20T16:21:30;3.17;;;2.95;;
6979;SDS011;3530;52.832;10.680;2023-08-20T16:24:16;2.50;;;2.25;;
6979;SDS011;3530;52.832;10.680;2023-08-20T16:27:02;2.13;;;2.00;;
6979;SDS011;3530;52.832;10.680;2023-08-20T16:29:48;2.10;;;2.00;;
6979;SDS011;3530;52.832;10.680;2023-08-20T16:32:34;2.10;;;2.00;;
6979;SDS011;3530;52.832;10.680;2023-08-20T16:35:20;2.97;;;2.63;;
6979;SDS011;3530;52.832;10.680;2023-08-20T16:38:06;2.50;;;2.30;;
6979;SDS011;3530;52.832;10.680;2023-08-20T16:40:51;2.60;;;2.40;;
6979;SDS011;3530;52.832;10.680;2023-08-20T16:43:37;2.13;;;2.03;;
6979;SDS011;3530;52.832;10.680;2023-08-20T16:46:23;3.05;;;2.75;;
6979;SDS011;3530;52.832;10.680;2023-08-20T16:49:08;3.28;;;2.42;;
6979;SDS011;3530;52.832;10.680;2023-08-20T16:51:54;2.33;;;2.22;;
6979;SDS011;3530;52.832;10.680;2023-08-20T16:54:45;2.60;;;2.40;;
6979;SDS011;3530;52.832;10.680;2023-08-20T16:57:31;2.30;;;2.20;;
6979;SDS011;3530;52.832;10.680;2023-08-20T17:00:17;2.50;;;2.30;;